createdAt,value
2023-04-19T00:02:14.761Z,3.77
2023-04-19T00:04:41.947Z,2.57
2023-04-19T00:07:08.975Z,3.10
2023-04-19T00:09:37.153Z,3.47
2023-04-19T00:12:07.319Z,2.60
2023-04-19T00:14:35.460Z,3.90
2023-04-19T00:17:04.050Z,2.97
2023-04-19T00:19:32.256Z,3.40
2023-04-19T00:22:00.528Z,2.80
2023-04-19T00:24:28.965Z,3.40
2023-04-19T00:26:57.794Z,3.33
2023-04-19T00:29:25.921Z,3.10
2023-04-19T00:31:53.959Z,2.93
2023-04-19T00:34:21.893Z,2.93
2023-04-19T00:36:49.992Z,3.03
2023-04-19T00:39:20.560Z,3.47
2023-04-19T00:41:48.696Z,2.83
2023-04-19T00:44:16.381Z,3.27
2023-04-19T00:46:45.512Z,3.20
2023-04-19T00:49:13.929Z,2.40
2023-04-19T00:51:42.269Z,2.83
2023-04-19T00:54:10.543Z,2.50
2023-04-19T00:56:39.109Z,2.60
2023-04-19T00:59:08.802Z,2.47
2023-04-19T01:01:36.032Z,3.20
2023-04-19T01:04:05.412Z,2.40
2023-04-19T01:06:33.968Z,2.90
2023-04-19T01:09:01.068Z,2.43
2023-04-19T01:11:29.101Z,3.47
2023-04-19T01:13:56.780Z,2.93
2023-04-19T01:16:25.797Z,3.30
2023-04-19T01:18:52.973Z,2.80
2023-04-19T01:21:20.060Z,2.80
2023-04-19T01:23:47.046Z,3.13
2023-04-19T01:26:13.983Z,2.90
2023-04-19T01:28:40.924Z,2.87
2023-04-19T01:31:07.953Z,2.80
2023-04-19T01:33:35.015Z,2.53
2023-04-19T01:36:01.964Z,3.60
2023-04-19T01:38:28.876Z,3.20
2023-04-19T01:40:57.414Z,2.97
2023-04-19T01:43:24.364Z,3.20
2023-04-19T01:45:51.350Z,3.23
2023-04-19T01:48:18.253Z,2.63
2023-04-19T01:50:45.220Z,3.10
2023-04-19T01:53:12.216Z,2.73
2023-04-19T01:55:39.722Z,2.63
2023-04-19T01:58:07.314Z,2.87
2023-04-19T02:00:34.314Z,2.87
2023-04-19T02:03:01.558Z,2.77
2023-04-19T02:05:28.661Z,3.07
2023-04-19T02:07:55.597Z,3.23
2023-04-19T02:10:22.745Z,3.17
2023-04-19T02:12:49.752Z,2.67
2023-04-19T02:15:16.724Z,2.50
2023-04-19T02:17:43.735Z,3.10
2023-04-19T02:20:11.002Z,2.70
2023-04-19T02:22:37.964Z,2.70
2023-04-19T02:25:06.230Z,2.80
2023-04-19T02:27:33.226Z,2.53
2023-04-19T02:30:00.289Z,3.30
2023-04-19T02:32:27.270Z,3.10
2023-04-19T02:34:54.253Z,2.77
2023-04-19T02:37:21.233Z,2.90
2023-04-19T02:39:48.179Z,2.70
2023-04-19T02:42:15.150Z,2.87
2023-04-19T02:44:42.069Z,2.80
2023-04-19T02:47:09.436Z,2.77
2023-04-19T02:49:38.010Z,2.63
2023-04-19T02:52:05.096Z,2.50
2023-04-19T02:54:33.270Z,3.23
2023-04-19T02:57:01.123Z,2.60
2023-04-19T02:59:28.275Z,2.17
2023-04-19T03:01:55.340Z,2.80
2023-04-19T03:04:22.691Z,3.00
2023-04-19T03:06:49.703Z,3.67
2023-04-19T03:09:16.766Z,2.33
2023-04-19T03:11:43.687Z,3.60
2023-04-19T03:14:10.808Z,2.20
2023-04-19T03:16:38.211Z,2.40
2023-04-19T03:19:06.044Z,2.10
2023-04-19T03:21:33.077Z,2.20
2023-04-19T03:24:00.106Z,2.20
2023-04-19T03:26:27.043Z,2.97
2023-04-19T03:28:54.102Z,2.40
2023-04-19T03:31:21.662Z,2.13
2023-04-19T03:33:51.325Z,1.97
2023-04-19T03:36:18.273Z,2.07
2023-04-19T03:38:45.259Z,2.17
2023-04-19T03:41:23.790Z,2.40
2023-04-19T03:43:50.905Z,2.70
2023-04-19T03:46:18.055Z,2.70
2023-04-19T03:48:45.040Z,2.40
2023-04-19T03:51:13.335Z,2.60
2023-04-19T03:53:40.383Z,2.60
2023-04-19T03:56:07.352Z,2.30
2023-04-19T03:58:34.325Z,3.17
2023-04-19T04:01:03.900Z,2.43
2023-04-19T04:03:31.313Z,2.20
2023-04-19T04:05:58.452Z,2.40
2023-04-19T04:08:25.390Z,2.80
2023-04-19T04:10:54.597Z,2.20
2023-04-19T04:13:21.577Z,2.23
2023-04-19T04:15:48.716Z,2.57
2023-04-19T04:18:16.351Z,2.53
2023-04-19T04:20:44.557Z,2.73
2023-04-19T04:23:11.678Z,2.70
2023-04-19T04:25:39.274Z,2.67
2023-04-19T04:28:06.784Z,2.33
2023-04-19T04:30:34.368Z,2.40
2023-04-19T04:33:01.414Z,3.80
2023-04-19T04:35:30.086Z,2.43
2023-04-19T04:37:57.073Z,2.40
2023-04-19T04:40:24.125Z,2.50
2023-04-19T04:42:53.021Z,2.43
2023-04-19T04:45:20.140Z,2.63
2023-04-19T04:47:47.192Z,2.70
2023-04-19T04:50:14.258Z,2.03
2023-04-19T04:52:41.310Z,2.70
2023-04-19T04:55:09.449Z,2.50
2023-04-19T04:57:36.443Z,2.57
2023-04-19T05:00:06.119Z,2.03
2023-04-19T05:02:33.205Z,2.00
2023-04-19T05:05:00.188Z,2.00
2023-04-19T05:07:27.147Z,2.60
2023-04-19T05:09:54.138Z,1.70
2023-04-19T05:12:21.035Z,2.50
2023-04-19T05:14:47.991Z,2.17
2023-04-19T05:17:15.054Z,2.70
2023-04-19T05:19:41.984Z,2.27
2023-04-19T05:22:08.951Z,2.40
2023-04-19T05:24:35.880Z,2.47
2023-04-19T05:27:02.874Z,2.43
2023-04-19T05:29:29.982Z,1.97
2023-04-19T05:31:58.414Z,1.80
2023-04-19T05:34:26.019Z,2.10
2023-04-19T05:36:53.009Z,2.40
2023-04-19T05:39:19.951Z,2.03
2023-04-19T05:41:46.909Z,1.67
2023-04-19T05:44:14.200Z,2.80
2023-04-19T05:46:41.294Z,2.13
2023-04-19T05:49:08.206Z,2.30
2023-04-19T05:51:35.087Z,2.13
2023-04-19T05:54:03.668Z,1.90
2023-04-19T05:56:30.701Z,2.00
2023-04-19T05:58:58.288Z,2.40
2023-04-19T06:01:25.238Z,1.60
2023-04-19T06:03:54.398Z,1.70
2023-04-19T06:06:24.934Z,2.43
2023-04-19T06:08:54.473Z,2.30
2023-04-19T06:11:26.906Z,1.90
2023-04-19T06:14:05.650Z,1.73
2023-04-19T06:16:32.727Z,3.20
2023-04-19T06:18:59.758Z,6.63
2023-04-19T06:21:27.029Z,2.40
2023-04-19T06:23:54.038Z,2.80
2023-04-19T06:26:21.671Z,2.87
2023-04-19T06:28:48.645Z,2.07
2023-04-19T06:31:15.608Z,4.77
2023-04-19T06:33:42.809Z,5.13
2023-04-19T06:36:10.847Z,1.80
2023-04-19T06:38:41.690Z,1.60
2023-04-19T06:41:09.292Z,1.87
2023-04-19T06:43:36.418Z,1.80
2023-04-19T06:46:06.809Z,1.20
2023-04-19T06:48:34.717Z,1.90
2023-04-19T06:51:01.829Z,2.03
2023-04-19T06:53:29.034Z,1.90
2023-04-19T06:56:04.294Z,1.97
2023-04-19T06:58:35.373Z,1.73
2023-04-19T07:01:04.732Z,2.07
2023-04-19T07:03:32.402Z,1.70
2023-04-19T07:05:59.969Z,1.63
2023-04-19T07:08:42.510Z,1.97
2023-04-19T07:11:15.942Z,1.60
2023-04-19T07:13:42.957Z,1.87
2023-04-19T07:16:09.943Z,1.97
2023-04-19T07:18:36.916Z,1.40
2023-04-19T07:21:03.922Z,2.27
2023-04-19T07:23:30.959Z,3.27
2023-04-19T07:25:57.915Z,5.57
2023-04-19T07:28:24.944Z,1.73
2023-04-19T07:30:51.905Z,2.00
2023-04-19T07:33:18.893Z,2.63
2023-04-19T07:35:47.066Z,2.20
2023-04-19T07:38:14.096Z,2.20
2023-04-19T07:40:41.163Z,1.73
2023-04-19T07:43:08.103Z,2.00
2023-04-19T07:45:36.004Z,1.47
2023-04-19T07:48:03.091Z,1.90
2023-04-19T07:50:30.225Z,2.13
2023-04-19T07:52:57.357Z,1.93
2023-04-19T07:55:24.345Z,1.77
2023-04-19T07:57:51.275Z,1.93
2023-04-19T08:00:21.391Z,1.77
2023-04-19T08:02:49.655Z,1.73
2023-04-19T08:05:17.701Z,2.13
2023-04-19T08:07:46.007Z,1.73
2023-04-19T08:10:13.553Z,1.90
2023-04-19T08:12:53.582Z,2.13
2023-04-19T08:18:00.786Z,1.90
2023-04-19T08:20:27.851Z,2.30
2023-04-19T08:22:54.785Z,2.20
2023-04-19T08:25:26.668Z,2.23
2023-04-19T08:27:53.614Z,1.87
2023-04-19T08:30:21.062Z,2.10
2023-04-19T08:32:48.010Z,2.07
2023-04-19T08:35:15.000Z,1.97
2023-04-19T08:37:41.942Z,2.20
2023-04-19T08:40:10.874Z,2.10
2023-04-19T08:42:37.920Z,2.70
2023-04-19T08:47:51.812Z,2.57
2023-04-19T08:50:32.645Z,1.97
2023-04-19T08:53:16.418Z,2.53
2023-04-19T08:56:08.690Z,3.00
2023-04-19T08:58:54.858Z,2.90
2023-04-19T09:01:33.955Z,2.47
2023-04-19T09:04:17.118Z,2.13
2023-04-19T09:06:54.392Z,2.50
2023-04-19T09:09:35.582Z,1.97
2023-04-19T09:12:17.683Z,2.20
2023-04-19T09:17:19.261Z,2.63
2023-04-19T09:19:48.402Z,2.20
2023-04-19T09:22:15.755Z,2.53
2023-04-19T09:27:13.197Z,2.40
2023-04-19T09:29:40.234Z,2.40
2023-04-19T09:32:09.749Z,2.97
2023-04-19T09:34:54.486Z,2.97
2023-04-19T09:37:41.539Z,4.33
2023-04-19T09:40:26.924Z,2.60
2023-04-19T09:48:07.413Z,2.33
2023-04-19T09:50:50.422Z,3.00
2023-04-19T09:53:24.782Z,3.10
2023-04-19T09:56:00.429Z,3.57
2023-04-19T09:58:34.466Z,2.43
2023-04-19T10:01:15.690Z,2.10
2023-04-19T10:03:46.535Z,2.90
2023-04-19T10:08:51.413Z,2.33
2023-04-19T10:11:22.631Z,2.50
2023-04-19T10:13:54.610Z,2.80
2023-04-19T10:16:21.918Z,2.33
2023-04-19T10:18:50.573Z,2.43
2023-04-19T10:21:19.437Z,3.30
2023-04-19T10:23:48.063Z,2.50
2023-04-19T10:26:14.963Z,2.63
2023-04-19T10:28:42.656Z,3.57
2023-04-19T10:31:13.818Z,3.07
2023-04-19T10:33:41.979Z,3.27
2023-04-19T10:36:11.764Z,3.20
2023-04-19T10:38:48.391Z,2.80
2023-04-19T10:41:18.670Z,2.93
2023-04-19T10:44:12.032Z,2.83
2023-04-19T10:46:40.712Z,2.47
2023-04-19T10:49:09.712Z,3.33
2023-04-19T10:51:47.505Z,3.80
2023-04-19T10:54:35.805Z,3.50
2023-04-19T10:57:08.536Z,2.17
2023-04-19T10:59:40.689Z,3.20
2023-04-19T11:02:23.321Z,2.60
2023-04-19T11:04:53.659Z,3.23
2023-04-19T11:07:23.778Z,3.50
2023-04-19T11:09:52.505Z,4.90
2023-04-19T11:12:21.605Z,2.97
2023-04-19T11:14:59.784Z,3.50
2023-04-19T11:17:31.781Z,2.60
2023-04-19T11:20:08.471Z,2.77
2023-04-19T11:22:40.249Z,3.30
2023-04-19T11:25:11.039Z,3.70
2023-04-19T11:27:42.940Z,2.90
2023-04-19T11:30:16.782Z,3.20
2023-04-19T11:32:57.292Z,2.90
2023-04-19T11:35:28.688Z,3.03
2023-04-19T11:37:56.965Z,2.80
2023-04-19T11:40:29.268Z,2.40
2023-04-19T11:43:03.108Z,2.73
2023-04-19T11:45:38.175Z,3.40
2023-04-19T11:48:15.100Z,2.93
2023-04-19T11:50:44.520Z,3.17
2023-04-19T11:53:23.536Z,2.70
2023-04-19T11:56:08.851Z,3.33
2023-04-19T11:58:45.082Z,3.03
2023-04-19T12:01:14.878Z,3.63
2023-04-19T12:03:51.125Z,4.37
2023-04-19T12:06:27.076Z,3.10
2023-04-19T12:09:00.355Z,2.70
2023-04-19T12:11:46.362Z,3.30
2023-04-19T12:14:16.973Z,3.37
2023-04-19T12:16:45.080Z,2.70
2023-04-19T12:19:14.807Z,2.53
2023-04-19T12:21:43.388Z,2.97
2023-04-19T12:24:10.594Z,3.40
2023-04-19T12:26:55.233Z,2.53
2023-04-19T12:29:23.033Z,3.10
2023-04-19T12:31:50.040Z,3.13
2023-04-19T12:34:17.100Z,2.57
2023-04-19T12:36:44.057Z,2.70
2023-04-19T12:39:10.965Z,3.30
2023-04-19T12:41:37.862Z,3.30
2023-04-19T12:44:05.069Z,2.97
2023-04-19T12:46:32.029Z,3.50
2023-04-19T12:48:59.046Z,3.47
2023-04-19T12:51:26.298Z,3.60
2023-04-19T12:53:54.105Z,3.83
2023-04-19T12:56:21.529Z,2.93
2023-04-19T12:58:48.467Z,3.60
2023-04-19T13:01:15.620Z,3.73
2023-04-19T13:03:42.697Z,4.03
2023-04-19T13:06:12.378Z,3.80
2023-04-19T13:08:45.373Z,3.63
2023-04-19T13:11:14.968Z,3.07
2023-04-19T13:13:41.944Z,4.50
2023-04-19T13:16:09.054Z,3.90
2023-04-19T13:18:36.090Z,3.03
2023-04-19T13:23:54.040Z,3.80
2023-04-19T13:26:21.069Z,3.30
2023-04-19T13:28:48.024Z,4.20
2023-04-19T13:31:15.092Z,3.23
2023-04-19T13:33:42.091Z,2.93
2023-04-19T13:36:09.175Z,3.93
2023-04-19T13:38:36.107Z,3.13
2023-04-19T13:41:03.993Z,3.13
2023-04-19T13:43:31.116Z,3.50
2023-04-19T13:45:58.121Z,4.17
2023-04-19T13:48:28.715Z,3.70
2023-04-19T13:50:59.814Z,4.00
2023-04-19T13:53:29.086Z,3.63
2023-04-19T13:55:56.953Z,3.30
2023-04-19T13:58:26.788Z,3.63
2023-04-19T14:00:54.180Z,3.57
2023-04-19T14:03:23.002Z,3.20
2023-04-19T14:05:50.297Z,3.30
2023-04-19T14:08:17.280Z,3.70
2023-04-19T14:10:44.250Z,3.30
2023-04-19T14:13:11.269Z,2.80
2023-04-19T14:15:38.293Z,3.60
2023-04-19T14:18:05.518Z,3.43
2023-04-19T14:20:32.575Z,3.27
2023-04-19T14:23:00.378Z,3.37
2023-04-19T14:25:28.182Z,4.20
2023-04-19T14:27:55.159Z,4.13
2023-04-19T14:30:22.406Z,3.47
2023-04-19T14:32:49.439Z,3.20
2023-04-19T14:35:16.485Z,3.50
2023-04-19T14:37:43.724Z,3.50
2023-04-19T14:40:11.258Z,4.17
2023-04-19T14:42:38.248Z,3.33
2023-04-19T14:45:09.965Z,3.40
2023-04-19T14:47:36.912Z,3.20
2023-04-19T14:50:04.056Z,4.57
2023-04-19T14:52:31.516Z,4.60
2023-04-19T14:54:59.989Z,4.27
2023-04-19T14:57:29.992Z,4.30
2023-04-19T14:59:58.175Z,5.50
2023-04-19T15:02:25.805Z,4.47
2023-04-19T15:04:53.950Z,5.77
2023-04-19T15:07:22.412Z,5.10
2023-04-19T15:09:49.589Z,3.90
2023-04-19T15:12:16.581Z,5.33
2023-04-19T15:14:43.519Z,5.33
2023-04-19T15:17:10.650Z,8.07
2023-04-19T15:19:39.710Z,4.97
2023-04-19T15:22:07.288Z,5.40
2023-04-19T15:24:35.669Z,5.13
2023-04-19T15:27:04.862Z,5.53
2023-04-19T15:29:31.887Z,4.90
2023-04-19T15:31:58.863Z,3.93
2023-04-19T15:34:26.023Z,4.00
2023-04-19T15:36:53.028Z,4.70
2023-04-19T15:39:20.034Z,5.17
2023-04-19T15:41:46.991Z,5.07
2023-04-19T15:44:13.947Z,5.10
2023-04-19T15:46:41.398Z,5.90
2023-04-19T15:49:08.529Z,5.93
2023-04-19T15:51:35.508Z,6.33
2023-04-19T15:54:06.333Z,5.03
2023-04-19T15:56:33.376Z,6.27
2023-04-19T15:59:00.438Z,5.57
2023-04-19T16:01:27.535Z,4.63
2023-04-19T16:03:54.614Z,5.80
2023-04-19T16:06:23.058Z,8.13
2023-04-19T16:08:50.841Z,5.97
2023-04-19T16:11:17.873Z,5.93
2023-04-19T16:13:44.781Z,4.80
2023-04-19T16:16:15.578Z,4.90
2023-04-19T16:18:42.508Z,5.87
2023-04-19T16:21:12.441Z,5.90
2023-04-19T16:23:39.455Z,7.60
2023-04-19T16:26:07.721Z,8.00
2023-04-19T16:28:34.689Z,8.80
2023-04-19T16:31:01.675Z,9.53
2023-04-19T16:33:28.704Z,8.00
2023-04-19T16:35:55.843Z,6.77
2023-04-19T16:38:22.796Z,6.97
2023-04-19T16:40:50.140Z,6.23
2023-04-19T16:43:17.205Z,7.80
2023-04-19T16:45:44.209Z,8.40
2023-04-19T16:48:11.630Z,7.60
2023-04-19T16:50:38.604Z,7.23
2023-04-19T16:53:05.740Z,6.50
2023-04-19T16:55:32.635Z,5.57
2023-04-19T16:57:59.640Z,10.10
2023-04-19T17:00:26.556Z,8.10
2023-04-19T17:02:53.820Z,8.17
2023-04-19T17:05:21.168Z,18.53
2023-04-19T17:07:48.235Z,8.10
2023-04-19T17:10:15.328Z,7.03
2023-04-19T17:12:42.285Z,8.03
2023-04-19T17:15:10.167Z,11.93
2023-04-19T17:17:37.075Z,6.70
2023-04-19T17:20:06.121Z,8.00
2023-04-19T17:22:33.025Z,8.20
2023-04-19T17:25:00.474Z,6.67
2023-04-19T17:27:27.456Z,6.37
2023-04-19T17:29:54.424Z,5.80
2023-04-19T17:32:21.376Z,6.60
2023-04-19T17:34:48.327Z,5.50
2023-04-19T17:37:15.439Z,6.30
2023-04-19T17:39:42.392Z,6.70
2023-04-19T17:42:09.326Z,6.73
2023-04-19T17:44:36.795Z,5.97
2023-04-19T17:47:03.803Z,7.13
2023-04-19T17:49:30.799Z,6.83
2023-04-19T17:51:57.680Z,6.27
2023-04-19T17:54:24.781Z,5.20
2023-04-19T17:56:52.598Z,5.50
2023-04-19T17:59:19.620Z,6.50
2023-04-19T18:01:46.651Z,6.60
2023-04-19T18:04:17.762Z,7.20
2023-04-19T18:06:48.078Z,5.10
2023-04-19T18:09:16.704Z,6.53
2023-04-19T18:11:44.043Z,5.90
2023-04-19T18:14:11.220Z,6.30
2023-04-19T18:16:38.261Z,6.03
2023-04-19T18:19:05.256Z,7.30
2023-04-19T18:21:33.430Z,7.17
2023-04-19T18:24:00.456Z,6.30
2023-04-19T18:26:38.749Z,7.23
2023-04-19T18:29:05.679Z,7.17
2023-04-19T18:31:32.848Z,7.27
2023-04-19T18:34:01.615Z,6.93
2023-04-19T18:36:28.894Z,7.20
2023-04-19T18:38:56.313Z,7.63
2023-04-19T18:41:23.694Z,7.03
2023-04-19T18:44:15.048Z,7.07
2023-04-19T18:46:37.673Z,6.80
2023-04-19T18:49:04.597Z,6.87
2023-04-19T18:51:32.757Z,6.33
2023-04-19T18:53:59.673Z,7.00
2023-04-19T18:56:58.928Z,7.10
2023-04-19T18:59:13.999Z,6.73
2023-04-19T19:01:41.227Z,7.73
2023-04-19T19:04:28.370Z,8.27
2023-04-19T19:06:56.155Z,8.00
2023-04-19T19:09:25.732Z,7.67
2023-04-19T19:11:56.708Z,8.03
2023-04-19T19:14:24.056Z,8.73
2023-04-19T19:16:52.767Z,9.20
2023-04-19T19:19:22.435Z,9.10
2023-04-19T19:21:49.993Z,10.10
2023-04-19T19:24:16.917Z,9.77
2023-04-19T19:26:44.000Z,10.00
2023-04-19T19:29:15.869Z,9.57
2023-04-19T19:31:43.408Z,10.17
2023-04-19T19:34:25.285Z,10.80
2023-04-19T19:36:54.508Z,11.13
2023-04-19T19:39:21.850Z,9.40
2023-04-19T19:42:05.318Z,10.93
2023-04-19T19:44:33.424Z,10.60
2023-04-19T19:47:00.415Z,10.77
2023-04-19T19:49:27.544Z,10.50
2023-04-19T19:51:59.188Z,11.27
2023-04-19T19:54:26.841Z,10.87
2023-04-19T19:57:39.561Z,10.93
2023-04-19T19:59:40.910Z,9.93
2023-04-19T20:02:08.476Z,9.70
2023-04-19T20:04:36.160Z,12.10
2023-04-19T20:09:34.422Z,13.07
2023-04-19T20:12:02.579Z,12.37
2023-04-19T20:14:29.517Z,13.17
2023-04-19T20:16:56.882Z,12.10
2023-04-19T20:19:24.495Z,11.10
2023-04-19T20:21:51.438Z,12.80
2023-04-19T20:24:18.345Z,12.77
2023-04-19T20:26:45.397Z,11.43
2023-04-19T20:29:12.296Z,11.50
2023-04-19T20:31:39.249Z,12.57
2023-04-19T20:34:06.213Z,12.93
2023-04-19T20:36:33.217Z,11.50
2023-04-19T20:39:02.021Z,11.50
2023-04-19T20:41:28.992Z,12.50
2023-04-19T20:43:57.154Z,11.90
2023-04-19T20:46:24.489Z,12.37
2023-04-19T20:48:51.443Z,11.97
2023-04-19T20:51:18.386Z,11.90
2023-04-19T20:53:45.608Z,11.20
2023-04-19T20:56:12.614Z,11.90
2023-04-19T20:58:40.545Z,11.33
2023-04-19T21:01:07.681Z,10.07
2023-04-19T21:03:34.770Z,10.40
2023-04-19T21:06:01.980Z,10.50
2023-04-19T21:08:28.890Z,10.80
2023-04-19T21:10:55.833Z,11.20
2023-04-19T21:13:22.797Z,10.00
2023-04-19T21:15:49.844Z,9.83
2023-04-19T21:18:17.665Z,9.90
2023-04-19T21:20:44.710Z,10.57
2023-04-19T21:23:11.713Z,10.43
2023-04-19T21:25:38.680Z,11.20
2023-04-19T21:28:05.632Z,9.60
2023-04-19T21:30:32.680Z,11.03
2023-04-19T21:33:00.065Z,10.10
2023-04-19T21:35:27.128Z,9.70
2023-04-19T21:37:54.220Z,9.93
2023-04-19T21:40:21.402Z,10.67
2023-04-19T21:42:48.419Z,9.03
2023-04-19T21:45:15.314Z,10.40
2023-04-19T21:47:42.329Z,9.93
2023-04-19T21:50:10.149Z,10.30
2023-04-19T21:52:37.241Z,8.70
2023-04-19T21:55:04.658Z,10.27
2023-04-19T21:57:32.316Z,11.00
2023-04-19T21:59:59.395Z,9.70
2023-04-19T22:02:26.432Z,9.40
2023-04-19T22:04:54.003Z,9.23
2023-04-19T22:07:23.984Z,9.90
2023-04-19T22:09:51.079Z,9.53
2023-04-19T22:12:18.843Z,9.47
2023-04-19T22:14:45.961Z,10.30
2023-04-19T22:17:12.951Z,10.20
2023-04-19T22:19:39.935Z,9.90
2023-04-19T22:22:06.910Z,9.73
2023-04-19T22:24:35.876Z,9.40
2023-04-19T22:27:06.399Z,9.33
2023-04-19T22:29:34.392Z,9.80
2023-04-19T22:32:01.456Z,9.57
2023-04-19T22:34:28.416Z,10.07
2023-04-19T22:36:55.375Z,8.10
2023-04-19T22:39:22.416Z,8.97
2023-04-19T22:41:49.361Z,10.27
2023-04-19T22:44:16.286Z,8.77
2023-04-19T22:46:43.946Z,8.53
2023-04-19T22:49:10.860Z,9.67
2023-04-19T22:51:38.417Z,9.07
2023-04-19T22:54:05.432Z,8.90
2023-04-19T22:56:32.389Z,9.10
2023-04-19T22:58:59.747Z,9.23
2023-04-19T23:01:26.781Z,9.13
2023-04-19T23:03:53.756Z,9.33
2023-04-19T23:06:20.729Z,10.47
2023-04-19T23:08:47.645Z,9.30
2023-04-19T23:11:14.607Z,8.80
2023-04-19T23:13:41.541Z,8.40
2023-04-19T23:16:12.822Z,8.30
2023-04-19T23:18:40.357Z,7.03
2023-04-19T23:21:07.438Z,8.23
2023-04-19T23:23:34.365Z,8.27
2023-04-19T23:26:01.377Z,9.03
2023-04-19T23:28:28.343Z,8.63
2023-04-19T23:30:55.384Z,8.00
2023-04-19T23:33:22.365Z,8.40
2023-04-19T23:35:49.298Z,9.07
2023-04-19T23:38:16.262Z,8.57
2023-04-19T23:40:43.217Z,8.10
2023-04-19T23:43:10.374Z,8.80
2023-04-19T23:45:37.397Z,8.77
2023-04-19T23:48:04.813Z,8.87
2023-04-19T23:50:32.325Z,8.77
2023-04-19T23:52:59.425Z,8.13
2023-04-19T23:55:26.441Z,7.93
2023-04-19T23:57:53.416Z,8.03
